sensor_id;sensor_type;location;lat;lon;timestamp;P1;durP1;ratioP1;P2;durP2;ratioP2
5878;SDS011;2965;42.640;23.370;2023-04-19T04:03:20;5.50;;;5.10;;
5878;SDS011;2965;42.640;23.370;2023-04-19T04:05:45;4.53;;;4.23;;
5878;SDS011;2965;42.640;23.370;2023-04-19T04:08:11;9.93;;;5.23;;
5878;SDS011;2965;42.640;23.370;2023-04-19T04:10:38;5.40;;;4.90;;
5878;SDS011;2965;42.640;23.370;2023-04-19T04:13:03;6.20;;;4.77;;
5878;SDS011;2965;42.640;23.370;2023-04-19T04:15:28;6.10;;;5.50;;
5878;SDS011;2965;42.640;23.370;2023-04-19T04:17:54;4.33;;;4.13;;
5878;SDS011;2965;42.640;23.370;2023-04-19T04:20:19;10.03;;;4.70;;
5878;SDS011;2965;42.640;23.370;2023-04-19T04:22:45;5.00;;;4.70;;
5878;SDS011;2965;42.640;23.370;2023-04-19T04:25:11;6.23;;;5.57;;
5878;SDS011;2965;42.640;23.370;2023-04-19T04:27:37;7.43;;;4.80;;
5878;SDS011;2965;42.640;23.370;2023-04-19T04:30:04;5.77;;;5.20;;
5878;SDS011;2965;42.640;23.370;2023-04-19T04:32:30;4.17;;;3.97;;
5878;SDS011;2965;42.640;23.370;2023-04-19T04:34:59;5.57;;;5.17;;
5878;SDS011;2965;42.640;23.370;2023-04-19T04:37:25;5.37;;;4.97;;
5878;SDS011;2965;42.640;23.370;2023-04-19T04:39:51;4.67;;;4.40;;
5878;SDS011;2965;42.640;23.370;2023-04-19T04:42:16;5.40;;;5.00;;
5878;SDS011;2965;42.640;23.370;2023-04-19T04:44:42;4.90;;;4.50;;
5878;SDS011;2965;42.640;23.370;2023-04-19T04:47:08;5.27;;;4.97;;
5878;SDS011;2965;42.640;23.370;2023-04-19T04:49:34;4.93;;;4.63;;
5878;SDS011;2965;42.640;23.370;2023-04-19T04:52:00;4.70;;;4.40;;
5878;SDS011;2965;42.640;23.370;2023-04-19T04:54:25;5.40;;;5.00;;
5878;SDS011;2965;42.640;23.370;2023-04-19T04:56:50;7.20;;;4.97;;
5878;SDS011;2965;42.640;23.370;2023-04-19T04:59:16;5.57;;;5.07;;
5878;SDS011;2965;42.640;23.370;2023-04-19T05:01:41;5.77;;;5.20;;
5878;SDS011;2965;42.640;23.370;2023-04-19T05:04:07;4.27;;;4.07;;
5878;SDS011;2965;42.640;23.370;2023-04-19T05:06:32;4.10;;;3.90;;
5878;SDS011;2965;42.640;23.370;2023-04-19T05:08:57;4.00;;;3.80;;
5878;SDS011;2965;42.640;23.370;2023-04-19T05:11:23;5.23;;;4.83;;
5878;SDS011;2965;42.640;23.370;2023-04-19T05:13:48;5.07;;;4.77;;
5878;SDS011;2965;42.640;23.370;2023-04-19T05:16:13;4.80;;;4.50;;
5878;SDS011;2965;42.640;23.370;2023-04-19T05:18:39;5.07;;;4.80;;
5878;SDS011;2965;42.640;23.370;2023-04-19T05:21:04;5.10;;;4.90;;
5878;SDS011;2965;42.640;23.370;2023-04-19T05:23:32;5.67;;;5.17;;
5878;SDS011;2965;42.640;23.370;2023-04-19T05:25:57;5.53;;;5.10;;
5878;SDS011;2965;42.640;23.370;2023-04-19T05:28:22;5.40;;;5.00;;
5878;SDS011;2965;42.640;23.370;2023-04-19T05:30:48;6.50;;;5.90;;
5878;SDS011;2965;42.640;23.370;2023-04-19T05:33:13;4.27;;;4.07;;
5878;SDS011;2965;42.640;23.370;2023-04-19T05:35:38;5.20;;;4.70;;
5878;SDS011;2965;42.640;23.370;2023-04-19T05:38:04;6.33;;;4.93;;
5878;SDS011;2965;42.640;23.370;2023-04-19T05:40:29;4.73;;;4.43;;
5878;SDS011;2965;42.640;23.370;2023-04-19T05:42:55;5.83;;;5.33;;
5878;SDS011;2965;42.640;23.370;2023-04-19T05:45:20;8.17;;;5.90;;
5878;SDS011;2965;42.640;23.370;2023-04-19T05:47:46;6.70;;;4.77;;
5878;SDS011;2965;42.640;23.370;2023-04-19T05:50:11;5.87;;;5.27;;
5878;SDS011;2965;42.640;23.370;2023-04-19T05:52:38;5.27;;;4.90;;
5878;SDS011;2965;42.640;23.370;2023-04-19T05:55:04;5.00;;;4.60;;
5878;SDS011;2965;42.640;23.370;2023-04-19T05:57:30;5.10;;;4.80;;
5878;SDS011;2965;42.640;23.370;2023-04-19T05:59:56;5.17;;;4.67;;
5878;SDS011;2965;42.640;23.370;2023-04-19T06:02:21;7.60;;;5.73;;
5878;SDS011;2965;42.640;23.370;2023-04-19T06:04:47;5.20;;;4.80;;
5878;SDS011;2965;42.640;23.370;2023-04-19T06:07:12;4.97;;;4.57;;
5878;SDS011;2965;42.640;23.370;2023-04-19T06:09:38;5.80;;;5.30;;
5878;SDS011;2965;42.640;23.370;2023-04-19T06:12:03;5.67;;;5.20;;
5878;SDS011;2965;42.640;23.370;2023-04-19T06:14:29;5.20;;;4.90;;
5878;SDS011;2965;42.640;23.370;2023-04-19T06:16:54;14.23;;;5.20;;
5878;SDS011;2965;42.640;23.370;2023-04-19T18:51:10;17.30;;;12.10;;
5878;SDS011;2965;42.640;23.370;2023-04-19T18:53:36;17.67;;;14.03;;
5878;SDS011;2965;42.640;23.370;2023-04-19T18:56:02;13.33;;;11.83;;
5878;SDS011;2965;42.640;23.370;2023-04-19T18:58:28;15.90;;;13.23;;
5878;SDS011;2965;42.640;23.370;2023-04-19T19:00:54;17.20;;;12.77;;
5878;SDS011;2965;42.640;23.370;2023-04-19T19:03:20;18.27;;;10.97;;
5878;SDS011;2965;42.640;23.370;2023-04-19T19:05:47;12.37;;;11.10;;
5878;SDS011;2965;42.640;23.370;2023-04-19T19:08:13;18.80;;;12.87;;
5878;SDS011;2965;42.640;23.370;2023-04-19T19:10:38;19.17;;;13.67;;
5878;SDS011;2965;42.640;23.370;2023-04-19T19:13:04;18.87;;;14.60;;
5878;SDS011;2965;42.640;23.370;2023-04-19T19:15:29;13.53;;;11.63;;
5878;SDS011;2965;42.640;23.370;2023-04-19T19:17:55;16.10;;;12.67;;
5878;SDS011;2965;42.640;23.370;2023-04-19T19:20:20;15.83;;;12.57;;
5878;SDS011;2965;42.640;23.370;2023-04-19T19:22:45;15.10;;;12.33;;
5878;SDS011;2965;42.640;23.370;2023-04-19T19:25:11;11.87;;;10.77;;
5878;SDS011;2965;42.640;23.370;2023-04-19T19:27:37;14.23;;;11.20;;
5878;SDS011;2965;42.640;23.370;2023-04-19T19:30:03;20.20;;;11.80;;
5878;SDS011;2965;42.640;23.370;2023-04-19T19:32:30;19.30;;;12.57;;
5878;SDS011;2965;42.640;23.370;2023-04-19T19:34:55;15.77;;;13.03;;
5878;SDS011;2965;42.640;23.370;2023-04-19T19:37:23;20.50;;;13.63;;
5878;SDS011;2965;42.640;23.370;2023-04-19T19:39:49;20.57;;;14.43;;
5878;SDS011;2965;42.640;23.370;2023-04-19T19:42:14;18.97;;;14.40;;
5878;SDS011;2965;42.640;23.370;2023-04-19T19:44:40;24.13;;;16.47;;
5878;SDS011;2965;42.640;23.370;2023-04-19T19:47:05;27.80;;;16.87;;
5878;SDS011;2965;42.640;23.370;2023-04-19T19:49:31;23.77;;;16.00;;
5878;SDS011;2965;42.640;23.370;2023-04-19T19:51:56;40.63;;;17.00;;
5878;SDS011;2965;42.640;23.370;2023-04-19T19:54:21;24.50;;;17.43;;
5878;SDS011;2965;42.640;23.370;2023-04-19T19:56:47;28.60;;;18.93;;
5878;SDS011;2965;42.640;23.370;2023-04-19T19:59:12;23.60;;;17.50;;
5878;SDS011;2965;42.640;23.370;2023-04-19T20:01:37;22.20;;;15.77;;
5878;SDS011;2965;42.640;23.370;2023-04-19T20:04:03;26.83;;;18.27;;
5878;SDS011;2965;42.640;23.370;2023-04-19T20:06:30;26.83;;;17.03;;
5878;SDS011;2965;42.640;23.370;2023-04-19T20:08:56;24.47;;;17.93;;
5878;SDS011;2965;42.640;23.370;2023-04-19T20:11:22;22.40;;;16.77;;
5878;SDS011;2965;42.640;23.370;2023-04-19T20:13:48;20.60;;;16.60;;
5878;SDS011;2965;42.640;23.370;2023-04-19T20:16:13;30.37;;;17.90;;
5878;SDS011;2965;42.640;23.370;2023-04-19T20:18:38;24.10;;;17.47;;
5878;SDS011;2965;42.640;23.370;2023-04-19T20:21:06;29.73;;;16.73;;
5878;SDS011;2965;42.640;23.370;2023-04-19T20:23:36;24.90;;;18.07;;
5878;SDS011;2965;42.640;23.370;2023-04-19T20:26:04;29.10;;;17.30;;
5878;SDS011;2965;42.640;23.370;2023-04-19T20:28:30;23.30;;;17.67;;
5878;SDS011;2965;42.640;23.370;2023-04-19T20:30:55;24.77;;;18.47;;
5878;SDS011;2965;42.640;23.370;2023-04-19T20:33:21;23.70;;;17.17;;
5878;SDS011;2965;42.640;23.370;2023-04-19T20:35:46;24.57;;;18.00;;
5878;SDS011;2965;42.640;23.370;2023-04-19T20:38:12;36.20;;;18.93;;
5878;SDS011;2965;42.640;23.370;2023-04-19T20:40:37;23.97;;;17.03;;
5878;SDS011;2965;42.640;23.370;2023-04-19T20:43:03;18.07;;;13.47;;
5878;SDS011;2965;42.640;23.370;2023-04-19T20:45:28;17.27;;;13.60;;
5878;SDS011;2965;42.640;23.370;2023-04-19T20:47:53;20.63;;;14.23;;
